sensor_id;sensor_type;location;lat;lon;timestamp;P1;durP1;ratioP1;P2;durP2;ratioP2
22648;SDS011;11491;41.942;24.220;2022-10-22T00:01:59;18.42;;;11.10;;
22648;SDS011;11491;41.942;24.220;2022-10-22T00:04:27;21.33;;;12.75;;
22648;SDS011;11491;41.942;24.220;2022-10-22T00:06:54;21.42;;;13.18;;
22648;SDS011;11491;41.942;24.220;2022-10-22T00:09:20;17.27;;;11.55;;
22648;SDS011;11491;41.942;24.220;2022-10-22T00:11:47;19.58;;;12.27;;
22648;SDS011;11491;41.942;24.220;2022-10-22T00:14:14;16.52;;;10.27;;
22648;SDS011;11491;41.942;24.220;2022-10-22T00:16:41;12.65;;;8.82;;
22648;SDS011;11491;41.942;24.220;2022-10-22T00:19:08;13.63;;;9.15;;
22648;SDS011;11491;41.942;24.220;2022-10-22T00:21:36;15.85;;;9.57;;
22648;SDS011;11491;41.942;24.220;2022-10-22T00:24:03;13.80;;;8.35;;
22648;SDS011;11491;41.942;24.220;2022-10-22T00:26:30;15.85;;;11.23;;
22648;SDS011;11491;41.942;24.220;2022-10-22T00:28:57;28.70;;;17.55;;
22648;SDS011;11491;41.942;24.220;2022-10-22T00:31:23;19.70;;;13.50;;
22648;SDS011;11491;41.942;24.220;2022-10-22T00:33:50;21.40;;;15.40;;
22648;SDS011;11491;41.942;24.220;2022-10-22T00:36:17;23.60;;;13.32;;
22648;SDS011;11491;41.942;24.220;2022-10-22T00:38:45;27.35;;;17.48;;
22648;SDS011;11491;41.942;24.220;2022-10-22T00:41:12;31.83;;;20.58;;
22648;SDS011;11491;41.942;24.220;2022-10-22T00:43:52;31.00;;;20.52;;
22648;SDS011;11491;41.942;24.220;2022-10-22T00:46:20;33.42;;;21.20;;
22648;SDS011;11491;41.942;24.220;2022-10-22T00:48:46;32.95;;;22.15;;
22648;SDS011;11491;41.942;24.220;2022-10-22T00:51:14;32.45;;;22.70;;
22648;SDS011;11491;41.942;24.220;2022-10-22T00:53:42;27.98;;;19.08;;
22648;SDS011;11491;41.942;24.220;2022-10-22T00:56:12;23.50;;;16.27;;
22648;SDS011;11491;41.942;24.220;2022-10-22T00:58:40;24.25;;;13.55;;
22648;SDS011;11491;41.942;24.220;2022-10-22T01:01:12;22.63;;;14.43;;
22648;SDS011;11491;41.942;24.220;2022-10-22T01:03:45;17.35;;;12.10;;
22648;SDS011;11491;41.942;24.220;2022-10-22T01:06:13;14.57;;;10.45;;
22648;SDS011;11491;41.942;24.220;2022-10-22T01:08:48;14.02;;;10.63;;
22648;SDS011;11491;41.942;24.220;2022-10-22T01:11:25;16.88;;;10.98;;
22648;SDS011;11491;41.942;24.220;2022-10-22T01:13:59;19.77;;;11.50;;
22648;SDS011;11491;41.942;24.220;2022-10-22T01:16:33;16.92;;;11.80;;
22648;SDS011;11491;41.942;24.220;2022-10-22T01:19:06;17.05;;;12.60;;
22648;SDS011;11491;41.942;24.220;2022-10-22T01:21:48;18.23;;;12.63;;
22648;SDS011;11491;41.942;24.220;2022-10-22T01:24:30;19.38;;;12.55;;
22648;SDS011;11491;41.942;24.220;2022-10-22T01:27:23;21.08;;;14.07;;
22648;SDS011;11491;41.942;24.220;2022-10-22T01:29:59;21.38;;;13.43;;
22648;SDS011;11491;41.942;24.220;2022-10-22T01:32:29;17.33;;;12.45;;
22648;SDS011;11491;41.942;24.220;2022-10-22T01:34:59;16.58;;;11.95;;
22648;SDS011;11491;41.942;24.220;2022-10-22T01:37:29;15.43;;;10.95;;
22648;SDS011;11491;41.942;24.220;2022-10-22T01:40:00;17.48;;;9.65;;
22648;SDS011;11491;41.942;24.220;2022-10-22T01:42:27;15.23;;;10.55;;
22648;SDS011;11491;41.942;24.220;2022-10-22T01:44:54;13.05;;;9.43;;
22648;SDS011;11491;41.942;24.220;2022-10-22T01:47:26;11.82;;;8.85;;
22648;SDS011;11491;41.942;24.220;2022-10-22T01:53:18;12.02;;;8.63;;
22648;SDS011;11491;41.942;24.220;2022-10-22T01:55:55;15.48;;;10.20;;
22648;SDS011;11491;41.942;24.220;2022-10-22T01:58:33;15.27;;;9.73;;
22648;SDS011;11491;41.942;24.220;2022-10-22T02:01:08;14.45;;;10.25;;
22648;SDS011;11491;41.942;24.220;2022-10-22T02:03:45;17.27;;;10.30;;
22648;SDS011;11491;41.942;24.220;2022-10-22T02:06:18;15.85;;;9.93;;
22648;SDS011;11491;41.942;24.220;2022-10-22T02:08:48;13.50;;;9.40;;
22648;SDS011;11491;41.942;24.220;2022-10-22T02:11:18;20.92;;;13.00;;
22648;SDS011;11491;41.942;24.220;2022-10-22T02:13:46;18.35;;;11.82;;
22648;SDS011;11491;41.942;24.220;2022-10-22T02:16:16;15.65;;;11.63;;
22648;SDS011;11491;41.942;24.220;2022-10-22T02:18:49;17.83;;;12.67;;
22648;SDS011;11491;41.942;24.220;2022-10-22T02:21:19;17.05;;;12.48;;
22648;SDS011;11491;41.942;24.220;2022-10-22T02:23:46;21.92;;;14.52;;
22648;SDS011;11491;41.942;24.220;2022-10-22T02:26:14;24.08;;;16.33;;
22648;SDS011;11491;41.942;24.220;2022-10-22T02:28:51;30.88;;;19.20;;
22648;SDS011;11491;41.942;24.220;2022-10-22T02:31:25;38.60;;;22.27;;
22648;SDS011;11491;41.942;24.220;2022-10-22T02:33:56;24.48;;;16.00;;
22648;SDS011;11491;41.942;24.220;2022-10-22T02:36:28;21.77;;;13.85;;
22648;SDS011;11491;41.942;24.220;2022-10-22T02:38:56;23.45;;;14.05;;
22648;SDS011;11491;41.942;24.220;2022-10-22T02:41:24;23.73;;;14.98;;
22648;SDS011;11491;41.942;24.220;2022-10-22T02:43:52;28.83;;;18.45;;
22648;SDS011;11491;41.942;24.220;2022-10-22T02:46:20;31.10;;;19.63;;
22648;SDS011;11491;41.942;24.220;2022-10-22T02:48:47;27.85;;;17.83;;
22648;SDS011;11491;41.942;24.220;2022-10-22T02:51:16;24.77;;;15.18;;
22648;SDS011;11491;41.942;24.220;2022-10-22T02:53:42;35.05;;;17.55;;
22648;SDS011;11491;41.942;24.220;2022-10-22T02:56:09;30.80;;;18.98;;
22648;SDS011;11491;41.942;24.220;2022-10-22T02:58:36;33.95;;;20.08;;
22648;SDS011;11491;41.942;24.220;2022-10-22T03:01:03;37.90;;;22.90;;
22648;SDS011;11491;41.942;24.220;2022-10-22T03:03:30;41.25;;;25.80;;
22648;SDS011;11491;41.942;24.220;2022-10-22T03:05:57;34.20;;;22.25;;
22648;SDS011;11491;41.942;24.220;2022-10-22T03:08:25;34.50;;;21.70;;
22648;SDS011;11491;41.942;24.220;2022-10-22T03:10:51;33.85;;;22.40;;
22648;SDS011;11491;41.942;24.220;2022-10-22T03:13:18;35.83;;;24.27;;
22648;SDS011;11491;41.942;24.220;2022-10-22T03:15:47;29.40;;;19.30;;
22648;SDS011;11491;41.942;24.220;2022-10-22T03:18:14;29.83;;;20.77;;
22648;SDS011;11491;41.942;24.220;2022-10-22T03:20:41;30.33;;;19.55;;
22648;SDS011;11491;41.942;24.220;2022-10-22T03:23:08;29.45;;;19.48;;
22648;SDS011;11491;41.942;24.220;2022-10-22T03:25:37;27.23;;;18.90;;
22648;SDS011;11491;41.942;24.220;2022-10-22T03:28:07;28.98;;;20.60;;
22648;SDS011;11491;41.942;24.220;2022-10-22T03:30:36;27.27;;;17.85;;
22648;SDS011;11491;41.942;24.220;2022-10-22T03:33:02;23.50;;;16.88;;
22648;SDS011;11491;41.942;24.220;2022-10-22T03:35:29;24.63;;;17.88;;
22648;SDS011;11491;41.942;24.220;2022-10-22T03:37:58;29.65;;;19.52;;
22648;SDS011;11491;41.942;24.220;2022-10-22T03:40:25;39.72;;;30.85;;
22648;SDS011;11491;41.942;24.220;2022-10-22T03:42:54;20.08;;;15.45;;
22648;SDS011;11491;41.942;24.220;2022-10-22T03:45:20;20.35;;;15.07;;
22648;SDS011;11491;41.942;24.220;2022-10-22T03:47:47;26.05;;;19.08;;
22648;SDS011;11491;41.942;24.220;2022-10-22T03:50:14;28.60;;;22.33;;
22648;SDS011;11491;41.942;24.220;2022-10-22T03:52:41;28.73;;;22.00;;
22648;SDS011;11491;41.942;24.220;2022-10-22T03:55:08;32.05;;;25.30;;
22648;SDS011;11491;41.942;24.220;2022-10-22T03:57:35;60.70;;;39.22;;
22648;SDS011;11491;41.942;24.220;2022-10-22T04:00:04;293.08;;;131.50;;
22648;SDS011;11491;41.942;24.220;2022-10-22T04:02:31;91.78;;;51.65;;
22648;SDS011;11491;41.942;24.220;2022-10-22T04:04:58;75.47;;;44.30;;
22648;SDS011;11491;41.942;24.220;2022-10-22T04:07:25;73.00;;;44.88;;
22648;SDS011;11491;41.942;24.220;2022-10-22T04:09:52;72.32;;;46.20;;
22648;SDS011;11491;41.942;24.220;2022-10-22T04:12:19;75.90;;;49.35;;
22648;SDS011;11491;41.942;24.220;2022-10-22T04:14:46;77.93;;;46.33;;
22648;SDS011;11491;41.942;24.220;2022-10-22T04:17:14;76.57;;;46.25;;
22648;SDS011;11491;41.942;24.220;2022-10-22T04:19:41;72.45;;;45.92;;
22648;SDS011;11491;41.942;24.220;2022-10-22T04:22:08;69.00;;;45.22;;
22648;SDS011;11491;41.942;24.220;2022-10-22T04:24:35;68.63;;;45.20;;
22648;SDS011;11491;41.942;24.220;2022-10-22T04:27:02;62.75;;;41.70;;
22648;SDS011;11491;41.942;24.220;2022-10-22T04:29:29;54.92;;;36.35;;
22648;SDS011;11491;41.942;24.220;2022-10-22T04:31:55;59.65;;;40.15;;
22648;SDS011;11491;41.942;24.220;2022-10-22T04:34:26;45.50;;;30.58;;
22648;SDS011;11491;41.942;24.220;2022-10-22T04:36:53;43.05;;;29.00;;
22648;SDS011;11491;41.942;24.220;2022-10-22T04:39:20;29.00;;;20.25;;
22648;SDS011;11491;41.942;24.220;2022-10-22T04:41:47;35.13;;;24.48;;
22648;SDS011;11491;41.942;24.220;2022-10-22T04:44:14;51.35;;;35.17;;
22648;SDS011;11491;41.942;24.220;2022-10-22T04:46:41;64.53;;;37.33;;
22648;SDS011;11491;41.942;24.220;2022-10-22T04:49:07;68.40;;;41.72;;
22648;SDS011;11491;41.942;24.220;2022-10-22T04:51:36;57.95;;;37.85;;
22648;SDS011;11491;41.942;24.220;2022-10-22T04:54:03;94.90;;;65.38;;
22648;SDS011;11491;41.942;24.220;2022-10-22T04:56:30;73.40;;;52.65;;
22648;SDS011;11491;41.942;24.220;2022-10-22T04:58:58;67.60;;;49.22;;
22648;SDS011;11491;41.942;24.220;2022-10-22T05:01:26;36.65;;;26.40;;
22648;SDS011;11491;41.942;24.220;2022-10-22T05:03:55;34.40;;;26.73;;
22648;SDS011;11491;41.942;24.220;2022-10-22T05:06:23;43.17;;;28.70;;
22648;SDS011;11491;41.942;24.220;2022-10-22T05:08:53;55.05;;;27.88;;
22648;SDS011;11491;41.942;24.220;2022-10-22T05:11:22;52.28;;;27.88;;
22648;SDS011;11491;41.942;24.220;2022-10-22T05:13:49;59.65;;;40.30;;
22648;SDS011;11491;41.942;24.220;2022-10-22T05:16:16;57.38;;;39.03;;
22648;SDS011;11491;41.942;24.220;2022-10-22T05:18:43;72.78;;;46.80;;
22648;SDS011;11491;41.942;24.220;2022-10-22T05:21:11;70.32;;;49.53;;
22648;SDS011;11491;41.942;24.220;2022-10-22T05:23:39;59.10;;;40.80;;
22648;SDS011;11491;41.942;24.220;2022-10-22T05:26:09;74.43;;;54.47;;
22648;SDS011;11491;41.942;24.220;2022-10-22T05:28:37;75.60;;;54.88;;
22648;SDS011;11491;41.942;24.220;2022-10-22T05:31:05;66.78;;;46.90;;
22648;SDS011;11491;41.942;24.220;2022-10-22T05:33:33;77.38;;;60.50;;
22648;SDS011;11491;41.942;24.220;2022-10-22T05:36:00;59.83;;;47.10;;
22648;SDS011;11491;41.942;24.220;2022-10-22T05:38:28;111.15;;;70.07;;
22648;SDS011;11491;41.942;24.220;2022-10-22T05:40:58;136.27;;;93.35;;
22648;SDS011;11491;41.942;24.220;2022-10-22T05:43:27;83.75;;;63.30;;
22648;SDS011;11491;41.942;24.220;2022-10-22T05:45:55;90.35;;;65.38;;
22648;SDS011;11491;41.942;24.220;2022-10-22T05:48:22;113.13;;;77.72;;
22648;SDS011;11491;41.942;24.220;2022-10-22T05:50:48;88.72;;;64.22;;
22648;SDS011;11491;41.942;24.220;2022-10-22T05:53:16;41.92;;;31.88;;
22648;SDS011;11491;41.942;24.220;2022-10-22T05:55:42;60.72;;;49.58;;
22648;SDS011;11491;41.942;24.220;2022-10-22T05:58:10;61.90;;;50.55;;
22648;SDS011;11491;41.942;24.220;2022-10-22T06:00:39;66.50;;;52.50;;
22648;SDS011;11491;41.942;24.220;2022-10-22T06:03:06;75.60;;;57.55;;
22648;SDS011;11491;41.942;24.220;2022-10-22T06:05:33;92.22;;;73.63;;
22648;SDS011;11491;41.942;24.220;2022-10-22T06:08:01;68.05;;;49.28;;
22648;SDS011;11491;41.942;24.220;2022-10-22T06:10:31;133.02;;;72.43;;
22648;SDS011;11491;41.942;24.220;2022-10-22T06:12:58;63.00;;;44.60;;
22648;SDS011;11491;41.942;24.220;2022-10-22T06:15:25;85.88;;;60.67;;
22648;SDS011;11491;41.942;24.220;2022-10-22T06:17:53;88.93;;;64.93;;
22648;SDS011;11491;41.942;24.220;2022-10-22T06:20:20;69.75;;;53.65;;
22648;SDS011;11491;41.942;24.220;2022-10-22T06:22:47;71.07;;;51.97;;
22648;SDS011;11491;41.942;24.220;2022-10-22T06:25:13;51.08;;;39.67;;
22648;SDS011;11491;41.942;24.220;2022-10-22T06:27:40;52.13;;;38.10;;
22648;SDS011;11491;41.942;24.220;2022-10-22T06:30:07;71.18;;;54.58;;
22648;SDS011;11491;41.942;24.220;2022-10-22T06:32:35;74.82;;;56.65;;
22648;SDS011;11491;41.942;24.220;2022-10-22T06:35:06;82.32;;;64.70;;
22648;SDS011;11491;41.942;24.220;2022-10-22T06:37:33;84.63;;;65.05;;
22648;SDS011;11491;41.942;24.220;2022-10-22T06:40:00;110.22;;;79.60;;
22648;SDS011;11491;41.942;24.220;2022-10-22T06:42:29;119.25;;;89.30;;
22648;SDS011;11491;41.942;24.220;2022-10-22T06:44:56;110.40;;;87.90;;
22648;SDS011;11491;41.942;24.220;2022-10-22T06:47:22;123.38;;;96.40;;
22648;SDS011;11491;41.942;24.220;2022-10-22T06:49:49;97.60;;;74.53;;
22648;SDS011;11491;41.942;24.220;2022-10-22T06:52:17;73.57;;;56.88;;
22648;SDS011;11491;41.942;24.220;2022-10-22T06:54:44;78.75;;;58.30;;
22648;SDS011;11491;41.942;24.220;2022-10-22T06:57:11;63.85;;;50.00;;
22648;SDS011;11491;41.942;24.220;2022-10-22T06:59:38;53.47;;;41.58;;
22648;SDS011;11491;41.942;24.220;2022-10-22T07:02:05;42.72;;;31.73;;
22648;SDS011;11491;41.942;24.220;2022-10-22T07:04:31;42.47;;;32.78;;
22648;SDS011;11491;41.942;24.220;2022-10-22T07:06:58;36.80;;;29.73;;
22648;SDS011;11491;41.942;24.220;2022-10-22T07:09:26;26.27;;;19.92;;
22648;SDS011;11491;41.942;24.220;2022-10-22T07:11:53;32.13;;;20.70;;
22648;SDS011;11491;41.942;24.220;2022-10-22T07:14:20;29.92;;;20.42;;
22648;SDS011;11491;41.942;24.220;2022-10-22T07:16:46;20.92;;;15.18;;
22648;SDS011;11491;41.942;24.220;2022-10-22T07:19:13;12.55;;;9.55;;
22648;SDS011;11491;41.942;24.220;2022-10-22T07:21:40;16.73;;;12.20;;
22648;SDS011;11491;41.942;24.220;2022-10-22T07:24:07;20.35;;;13.80;;
22648;SDS011;11491;41.942;24.220;2022-10-22T07:26:35;19.67;;;16.33;;
22648;SDS011;11491;41.942;24.220;2022-10-22T07:29:04;19.23;;;15.30;;
22648;SDS011;11491;41.942;24.220;2022-10-22T07:31:31;19.95;;;16.25;;
22648;SDS011;11491;41.942;24.220;2022-10-22T07:33:58;37.90;;;30.42;;
22648;SDS011;11491;41.942;24.220;2022-10-22T07:36:24;30.40;;;23.15;;
22648;SDS011;11491;41.942;24.220;2022-10-22T07:38:55;23.08;;;17.73;;
22648;SDS011;11491;41.942;24.220;2022-10-22T07:41:23;33.25;;;21.27;;
22648;SDS011;11491;41.942;24.220;2022-10-22T07:43:52;36.17;;;24.60;;
22648;SDS011;11491;41.942;24.220;2022-10-22T07:46:18;31.00;;;24.90;;
22648;SDS011;11491;41.942;24.220;2022-10-22T07:48:45;45.10;;;29.15;;
22648;SDS011;11491;41.942;24.220;2022-10-22T07:51:12;30.40;;;22.48;;
22648;SDS011;11491;41.942;24.220;2022-10-22T07:53:39;79.57;;;56.15;;
22648;SDS011;11491;41.942;24.220;2022-10-22T07:56:06;207.15;;;118.57;;
22648;SDS011;11491;41.942;24.220;2022-10-22T07:58:34;108.85;;;62.80;;
22648;SDS011;11491;41.942;24.220;2022-10-22T08:01:03;133.88;;;76.80;;
22648;SDS011;11491;41.942;24.220;2022-10-22T08:03:30;230.32;;;197.07;;
22648;SDS011;11491;41.942;24.220;2022-10-22T08:05:57;195.10;;;113.97;;
22648;SDS011;11491;41.942;24.220;2022-10-22T08:08:25;57.92;;;32.53;;
22648;SDS011;11491;41.942;24.220;2022-10-22T08:10:54;36.45;;;22.45;;
22648;SDS011;11491;41.942;24.220;2022-10-22T08:13:22;33.58;;;21.50;;
22648;SDS011;11491;41.942;24.220;2022-10-22T08:15:50;24.35;;;15.88;;
22648;SDS011;11491;41.942;24.220;2022-10-22T08:18:18;26.85;;;16.10;;
22648;SDS011;11491;41.942;24.220;2022-10-22T08:20:45;22.73;;;16.42;;
22648;SDS011;11491;41.942;24.220;2022-10-22T08:23:11;20.23;;;14.55;;
22648;SDS011;11491;41.942;24.220;2022-10-22T08:25:38;34.03;;;26.00;;
22648;SDS011;11491;41.942;24.220;2022-10-22T08:28:05;22.67;;;17.88;;
22648;SDS011;11491;41.942;24.220;2022-10-22T08:30:32;16.88;;;11.40;;
22648;SDS011;11491;41.942;24.220;2022-10-22T08:32:59;8.57;;;7.65;;
22648;SDS011;11491;41.942;24.220;2022-10-22T08:35:28;9.70;;;7.78;;
22648;SDS011;11491;41.942;24.220;2022-10-22T08:37:54;15.05;;;10.05;;
22648;SDS011;11491;41.942;24.220;2022-10-22T08:40:22;12.43;;;9.13;;
22648;SDS011;11491;41.942;24.220;2022-10-22T08:43:10;9.48;;;8.20;;
22648;SDS011;11491;41.942;24.220;2022-10-22T08:45:49;24.77;;;13.55;;
22648;SDS011;11491;41.942;24.220;2022-10-22T08:48:33;57.38;;;27.05;;
22648;SDS011;11491;41.942;24.220;2022-10-22T08:51:21;43.45;;;25.13;;
22648;SDS011;11491;41.942;24.220;2022-10-22T08:54:04;126.55;;;61.88;;
22648;SDS011;11491;41.942;24.220;2022-10-22T08:56:40;26.70;;;22.02;;
22648;SDS011;11491;41.942;24.220;2022-10-22T08:59:12;19.67;;;17.67;;
22648;SDS011;11491;41.942;24.220;2022-10-22T09:01:44;35.28;;;25.75;;
22648;SDS011;11491;41.942;24.220;2022-10-22T09:04:14;26.83;;;21.00;;
22648;SDS011;11491;41.942;24.220;2022-10-22T09:06:50;15.02;;;13.00;;
22648;SDS011;11491;41.942;24.220;2022-10-22T09:09:19;15.27;;;10.43;;
22648;SDS011;11491;41.942;24.220;2022-10-22T09:11:47;20.42;;;16.00;;
22648;SDS011;11491;41.942;24.220;2022-10-22T09:14:16;9.50;;;7.78;;
22648;SDS011;11491;41.942;24.220;2022-10-22T09:17:01;5.88;;;4.68;;
22648;SDS011;11491;41.942;24.220;2022-10-22T09:19:39;11.25;;;8.52;;
22648;SDS011;11491;41.942;24.220;2022-10-22T09:22:17;9.32;;;6.97;;
22648;SDS011;11491;41.942;24.220;2022-10-22T09:24:57;35.15;;;21.60;;
22648;SDS011;11491;41.942;24.220;2022-10-22T09:27:29;8.60;;;6.90;;
22648;SDS011;11491;41.942;24.220;2022-10-22T09:29:56;7.07;;;4.43;;
22648;SDS011;11491;41.942;24.220;2022-10-22T09:32:23;7.95;;;6.88;;
22648;SDS011;11491;41.942;24.220;2022-10-22T09:34:53;9.05;;;6.68;;
22648;SDS011;11491;41.942;24.220;2022-10-22T09:37:23;5.35;;;4.20;;
22648;SDS011;11491;41.942;24.220;2022-10-22T09:39:52;7.05;;;4.55;;
22648;SDS011;11491;41.942;24.220;2022-10-22T09:42:19;6.50;;;3.83;;
22648;SDS011;11491;41.942;24.220;2022-10-22T09:44:50;5.00;;;3.70;;
22648;SDS011;11491;41.942;24.220;2022-10-22T09:47:28;9.77;;;8.77;;
22648;SDS011;11491;41.942;24.220;2022-10-22T09:50:20;11.63;;;7.45;;
22648;SDS011;11491;41.942;24.220;2022-10-22T09:53:00;11.45;;;7.97;;
22648;SDS011;11491;41.942;24.220;2022-10-22T09:55:31;9.48;;;7.40;;
22648;SDS011;11491;41.942;24.220;2022-10-22T09:57:58;13.07;;;9.93;;
22648;SDS011;11491;41.942;24.220;2022-10-22T10:00:26;18.45;;;13.30;;
22648;SDS011;11491;41.942;24.220;2022-10-22T10:02:54;13.93;;;10.63;;
22648;SDS011;11491;41.942;24.220;2022-10-22T10:05:26;14.88;;;10.35;;
22648;SDS011;11491;41.942;24.220;2022-10-22T10:07:54;14.55;;;11.57;;
22648;SDS011;11491;41.942;24.220;2022-10-22T10:10:27;14.55;;;11.32;;
22648;SDS011;11491;41.942;24.220;2022-10-22T10:13:02;13.63;;;9.60;;
22648;SDS011;11491;41.942;24.220;2022-10-22T10:15:41;11.70;;;7.70;;
22648;SDS011;11491;41.942;24.220;2022-10-22T10:18:17;11.02;;;7.43;;
22648;SDS011;11491;41.942;24.220;2022-10-22T10:20:52;12.30;;;9.48;;
22648;SDS011;11491;41.942;24.220;2022-10-22T10:23:25;9.48;;;7.93;;
22648;SDS011;11491;41.942;24.220;2022-10-22T10:28:32;11.10;;;8.00;;
22648;SDS011;11491;41.942;24.220;2022-10-22T10:31:15;20.73;;;14.07;;
22648;SDS011;11491;41.942;24.220;2022-10-22T10:33:52;11.07;;;8.55;;
22648;SDS011;11491;41.942;24.220;2022-10-22T10:36:29;11.88;;;9.27;;
22648;SDS011;11491;41.942;24.220;2022-10-22T10:39:06;9.02;;;6.40;;
22648;SDS011;11491;41.942;24.220;2022-10-22T10:41:40;7.93;;;6.43;;
22648;SDS011;11491;41.942;24.220;2022-10-22T10:44:23;10.32;;;6.80;;
22648;SDS011;11491;41.942;24.220;2022-10-22T10:47:11;8.82;;;7.93;;
22648;SDS011;11491;41.942;24.220;2022-10-22T10:49:48;10.05;;;7.93;;
22648;SDS011;11491;41.942;24.220;2022-10-22T10:52:25;11.40;;;8.05;;
22648;SDS011;11491;41.942;24.220;2022-10-22T10:55:02;14.40;;;8.27;;
22648;SDS011;11491;41.942;24.220;2022-10-22T10:57:42;11.02;;;8.18;;
22648;SDS011;11491;41.942;24.220;2022-10-22T11:00:15;10.93;;;7.88;;
22648;SDS011;11491;41.942;24.220;2022-10-22T11:02:58;15.30;;;9.23;;
22648;SDS011;11491;41.942;24.220;2022-10-22T11:06:00;13.90;;;7.50;;
22648;SDS011;11491;41.942;24.220;2022-10-22T11:08:33;11.73;;;7.70;;
22648;SDS011;11491;41.942;24.220;2022-10-22T11:11:03;10.00;;;7.40;;
22648;SDS011;11491;41.942;24.220;2022-10-22T11:13:35;10.02;;;8.52;;
22648;SDS011;11491;41.942;24.220;2022-10-22T11:16:08;9.98;;;6.45;;
22648;SDS011;11491;41.942;24.220;2022-10-22T11:18:45;9.38;;;5.65;;
22648;SDS011;11491;41.942;24.220;2022-10-22T11:21:18;6.93;;;5.70;;
22648;SDS011;11491;41.942;24.220;2022-10-22T11:23:50;9.43;;;5.60;;
22648;SDS011;11491;41.942;24.220;2022-10-22T11:26:26;7.88;;;5.55;;
22648;SDS011;11491;41.942;24.220;2022-10-22T11:29:00;13.38;;;8.38;;
22648;SDS011;11491;41.942;24.220;2022-10-22T11:31:30;12.13;;;9.98;;
22648;SDS011;11491;41.942;24.220;2022-10-22T11:34:00;13.18;;;10.00;;
22648;SDS011;11491;41.942;24.220;2022-10-22T11:36:32;19.65;;;11.90;;
22648;SDS011;11491;41.942;24.220;2022-10-22T11:39:01;13.10;;;9.05;;
22648;SDS011;11491;41.942;24.220;2022-10-22T11:41:29;21.55;;;16.98;;
22648;SDS011;11491;41.942;24.220;2022-10-22T11:44:10;24.95;;;16.75;;
22648;SDS011;11491;41.942;24.220;2022-10-22T11:46:52;14.25;;;9.02;;
22648;SDS011;11491;41.942;24.220;2022-10-22T11:49:22;9.20;;;6.40;;
22648;SDS011;11491;41.942;24.220;2022-10-22T11:52:04;9.65;;;6.90;;
22648;SDS011;11491;41.942;24.220;2022-10-22T11:54:47;22.75;;;11.98;;
22648;SDS011;11491;41.942;24.220;2022-10-22T11:57:21;9.02;;;7.38;;
22648;SDS011;11491;41.942;24.220;2022-10-22T11:59:53;8.13;;;4.15;;
22648;SDS011;11491;41.942;24.220;2022-10-22T12:02:28;4.90;;;3.90;;
22648;SDS011;11491;41.942;24.220;2022-10-22T12:08:15;6.40;;;5.75;;
22648;SDS011;11491;41.942;24.220;2022-10-22T12:16:50;6.10;;;3.92;;
22648;SDS011;11491;41.942;24.220;2022-10-22T12:19:23;9.05;;;4.85;;
22648;SDS011;11491;41.942;24.220;2022-10-22T12:21:53;5.47;;;3.70;;
22648;SDS011;11491;41.942;24.220;2022-10-22T12:24:22;6.05;;;4.60;;
22648;SDS011;11491;41.942;24.220;2022-10-22T12:26:49;10.05;;;4.20;;
22648;SDS011;11491;41.942;24.220;2022-10-22T12:29:17;11.30;;;4.50;;
22648;SDS011;11491;41.942;24.220;2022-10-22T12:31:48;15.35;;;7.97;;
22648;SDS011;11491;41.942;24.220;2022-10-22T12:34:15;7.72;;;4.68;;
22648;SDS011;11491;41.942;24.220;2022-10-22T12:36:47;7.32;;;5.03;;
22648;SDS011;11491;41.942;24.220;2022-10-22T12:39:15;31.88;;;17.55;;
22648;SDS011;11491;41.942;24.220;2022-10-22T12:41:43;14.40;;;8.10;;
22648;SDS011;11491;41.942;24.220;2022-10-22T12:44:11;9.57;;;5.90;;
22648;SDS011;11491;41.942;24.220;2022-10-22T12:46:39;7.00;;;4.88;;
22648;SDS011;11491;41.942;24.220;2022-10-22T12:49:13;7.88;;;6.72;;
22648;SDS011;11491;41.942;24.220;2022-10-22T12:51:42;6.40;;;4.70;;
22648;SDS011;11491;41.942;24.220;2022-10-22T12:54:14;6.68;;;4.47;;
22648;SDS011;11491;41.942;24.220;2022-10-22T12:56:48;8.32;;;5.72;;
22648;SDS011;11491;41.942;24.220;2022-10-22T12:59:17;8.63;;;4.53;;
22648;SDS011;11491;41.942;24.220;2022-10-22T13:01:47;7.85;;;5.00;;
22648;SDS011;11491;41.942;24.220;2022-10-22T13:04:21;8.25;;;6.82;;
22648;SDS011;11491;41.942;24.220;2022-10-22T13:07:04;15.20;;;13.65;;
22648;SDS011;11491;41.942;24.220;2022-10-22T13:09:43;9.85;;;5.90;;
22648;SDS011;11491;41.942;24.220;2022-10-22T13:12:12;9.13;;;5.40;;
22648;SDS011;11491;41.942;24.220;2022-10-22T13:14:41;6.57;;;4.80;;
22648;SDS011;11491;41.942;24.220;2022-10-22T13:17:10;8.13;;;5.28;;
22648;SDS011;11491;41.942;24.220;2022-10-22T13:19:44;5.25;;;4.28;;
22648;SDS011;11491;41.942;24.220;2022-10-22T13:22:28;8.30;;;4.30;;
22648;SDS011;11491;41.942;24.220;2022-10-22T13:24:57;6.78;;;3.65;;
22648;SDS011;11491;41.942;24.220;2022-10-22T13:27:25;6.75;;;4.07;;
22648;SDS011;11491;41.942;24.220;2022-10-22T13:29:53;6.22;;;4.72;;
22648;SDS011;11491;41.942;24.220;2022-10-22T13:32:24;9.60;;;6.32;;
22648;SDS011;11491;41.942;24.220;2022-10-22T13:34:56;9.65;;;6.30;;
22648;SDS011;11491;41.942;24.220;2022-10-22T13:37:25;14.98;;;11.93;;
22648;SDS011;11491;41.942;24.220;2022-10-22T13:39:53;10.93;;;7.85;;
22648;SDS011;11491;41.942;24.220;2022-10-22T13:42:20;16.38;;;10.65;;
22648;SDS011;11491;41.942;24.220;2022-10-22T13:44:47;21.23;;;18.08;;
22648;SDS011;11491;41.942;24.220;2022-10-22T13:47:16;17.23;;;12.65;;
22648;SDS011;11491;41.942;24.220;2022-10-22T13:49:51;13.88;;;10.98;;
22648;SDS011;11491;41.942;24.220;2022-10-22T13:55:12;14.60;;;9.05;;
22648;SDS011;11491;41.942;24.220;2022-10-22T13:57:43;8.25;;;5.43;;
22648;SDS011;11491;41.942;24.220;2022-10-22T14:00:11;6.22;;;5.35;;
22648;SDS011;11491;41.942;24.220;2022-10-22T14:02:39;11.43;;;5.90;;
22648;SDS011;11491;41.942;24.220;2022-10-22T14:05:06;8.52;;;5.93;;
22648;SDS011;11491;41.942;24.220;2022-10-22T14:07:35;11.27;;;7.55;;
22648;SDS011;11491;41.942;24.220;2022-10-22T14:10:08;8.60;;;6.85;;
22648;SDS011;11491;41.942;24.220;2022-10-22T14:12:40;8.77;;;6.35;;
22648;SDS011;11491;41.942;24.220;2022-10-22T14:15:08;11.43;;;9.07;;
22648;SDS011;11491;41.942;24.220;2022-10-22T14:17:35;9.77;;;7.30;;
22648;SDS011;11491;41.942;24.220;2022-10-22T14:20:04;25.27;;;20.55;;
22648;SDS011;11491;41.942;24.220;2022-10-22T14:22:31;82.18;;;61.75;;
22648;SDS011;11491;41.942;24.220;2022-10-22T14:24:58;92.13;;;60.58;;
22648;SDS011;11491;41.942;24.220;2022-10-22T14:27:26;93.53;;;68.22;;
22648;SDS011;11491;41.942;24.220;2022-10-22T14:29:53;52.40;;;39.90;;
22648;SDS011;11491;41.942;24.220;2022-10-22T14:32:20;30.05;;;22.70;;
22648;SDS011;11491;41.942;24.220;2022-10-22T14:34:46;34.50;;;25.17;;
22648;SDS011;11491;41.942;24.220;2022-10-22T14:37:14;46.80;;;40.22;;
22648;SDS011;11491;41.942;24.220;2022-10-22T14:39:43;38.65;;;32.05;;
22648;SDS011;11491;41.942;24.220;2022-10-22T14:42:11;33.72;;;24.60;;
22648;SDS011;11491;41.942;24.220;2022-10-22T14:44:42;31.83;;;25.65;;
22648;SDS011;11491;41.942;24.220;2022-10-22T14:47:08;35.17;;;27.23;;
22648;SDS011;11491;41.942;24.220;2022-10-22T14:49:35;30.73;;;25.35;;